CheckWX is a tool to help pilots better visualize weather data.  It is not intended as a substitute for an official pre-flight weather briefing.

16:05:19 UTC

KAGC TAF
Allegheny County Airport
Pittsburgh, Pennsylvania, USA
KAGC 181135Z 1812/1912 32006KT P6SM SCT045 FM181800 30008KT P6SM BKN045 FM190300 VRB03KT P6SM FEW045

Mar-18@
12:00 UTC

Mar-18 @ 12:00 UTC

Mar-18@
18:00 UTC

Mar-18 @ 18:00 UTC

KAGC 181135Z 1812/1912 32006KT P6SM SCT045
Wind
  • 320° at 6 KTS
Cloud Levels
  • Scattered at 4,500' AGL

Mar-18@
18:00 UTC

Mar-18 @ 18:00 UTC

Mar-19@
03:00 UTC

Mar-19 @ 03:00 UTC

FM181800 30008KT P6SM BKN045

From

From Standard forecast or significant change

Wind
  • 300° at 8 KTS
Cloud Levels
  • Broken at 4,500' AGL

Mar-19@
03:00 UTC

Mar-19 @ 03:00 UTC

Mar-19@
12:00 UTC

Mar-19 @ 12:00 UTC

FM190300 VRB03KT P6SM FEW045

From

From Standard forecast or significant change

Wind
  • Variable at 3 KTS
Cloud Levels
  • Few at 4,500' AGL